sensor_id;sensor_type;location;lat;lon;timestamp;P1;durP1;ratioP1;P2;durP2;ratioP2
22786;SDS011;63134;52.020;4.714;2023-01-16T00:02:36;11.88;;;9.05;;
22786;SDS011;63134;52.020;4.714;2023-01-16T00:05:22;11.60;;;8.10;;
22786;SDS011;63134;52.020;4.714;2023-01-16T00:08:07;12.52;;;7.45;;
22786;SDS011;63134;52.020;4.714;2023-01-16T00:11:01;11.88;;;7.57;;
22786;SDS011;63134;52.020;4.714;2023-01-16T00:13:48;8.90;;;6.93;;
22786;SDS011;63134;52.020;4.714;2023-01-16T00:16:33;10.38;;;6.35;;
22786;SDS011;63134;52.020;4.714;2023-01-16T00:19:19;10.70;;;5.80;;
22786;SDS011;63134;52.020;4.714;2023-01-16T00:22:08;8.15;;;5.45;;
22786;SDS011;63134;52.020;4.714;2023-01-16T00:24:53;7.47;;;5.28;;
22786;SDS011;63134;52.020;4.714;2023-01-16T00:27:39;8.45;;;4.93;;
22786;SDS011;63134;52.020;4.714;2023-01-16T00:30:24;11.35;;;4.75;;
22786;SDS011;63134;52.020;4.714;2023-01-16T00:33:10;6.53;;;4.80;;
22786;SDS011;63134;52.020;4.714;2023-01-16T00:35:59;7.03;;;4.60;;
22786;SDS011;63134;52.020;4.714;2023-01-16T00:38:46;15.10;;;4.95;;
22786;SDS011;63134;52.020;4.714;2023-01-16T00:41:35;11.57;;;5.60;;
22786;SDS011;63134;52.020;4.714;2023-01-16T00:44:23;13.50;;;6.70;;
22786;SDS011;63134;52.020;4.714;2023-01-16T00:47:08;10.90;;;5.82;;
22786;SDS011;63134;52.020;4.714;2023-01-16T00:49:54;16.00;;;7.60;;
22786;SDS011;63134;52.020;4.714;2023-01-16T00:52:42;15.77;;;7.72;;
22786;SDS011;63134;52.020;4.714;2023-01-16T00:55:27;17.95;;;7.78;;
22786;SDS011;63134;52.020;4.714;2023-01-16T00:58:13;16.05;;;7.82;;
22786;SDS011;63134;52.020;4.714;2023-01-16T01:01:00;15.05;;;7.60;;
22786;SDS011;63134;52.020;4.714;2023-01-16T01:03:48;20.30;;;8.38;;
22786;SDS011;63134;52.020;4.714;2023-01-16T01:06:34;18.30;;;8.30;;
22786;SDS011;63134;52.020;4.714;2023-01-16T01:09:20;19.25;;;7.68;;
22786;SDS011;63134;52.020;4.714;2023-01-16T01:12:05;15.32;;;8.00;;
22786;SDS011;63134;52.020;4.714;2023-01-16T01:14:51;17.35;;;7.65;;
22786;SDS011;63134;52.020;4.714;2023-01-16T01:17:39;19.63;;;8.57;;
22786;SDS011;63134;52.020;4.714;2023-01-16T01:20:25;23.95;;;8.35;;
22786;SDS011;63134;52.020;4.714;2023-01-16T01:23:11;15.85;;;7.82;;
22786;SDS011;63134;52.020;4.714;2023-01-16T01:25:56;21.05;;;7.53;;
22786;SDS011;63134;52.020;4.714;2023-01-16T01:28:47;23.25;;;10.30;;
22786;SDS011;63134;52.020;4.714;2023-01-16T01:31:33;18.25;;;8.88;;
22786;SDS011;63134;52.020;4.714;2023-01-16T01:34:21;22.60;;;9.30;;
22786;SDS011;63134;52.020;4.714;2023-01-16T01:37:06;20.55;;;9.73;;
22786;SDS011;63134;52.020;4.714;2023-01-16T01:39:55;19.13;;;9.32;;
22786;SDS011;63134;52.020;4.714;2023-01-16T01:42:41;22.73;;;9.88;;
22786;SDS011;63134;52.020;4.714;2023-01-16T01:45:35;34.17;;;9.90;;
22786;SDS011;63134;52.020;4.714;2023-01-16T01:48:24;24.85;;;9.73;;
22786;SDS011;63134;52.020;4.714;2023-01-16T01:51:19;25.55;;;9.75;;
22786;SDS011;63134;52.020;4.714;2023-01-16T01:54:09;20.83;;;8.25;;
22786;SDS011;63134;52.020;4.714;2023-01-16T01:57:17;19.13;;;7.43;;
22786;SDS011;63134;52.020;4.714;2023-01-16T02:00:10;11.32;;;6.32;;
22786;SDS011;63134;52.020;4.714;2023-01-16T02:03:04;18.65;;;6.43;;
22786;SDS011;63134;52.020;4.714;2023-01-16T02:05:57;12.93;;;5.15;;
22786;SDS011;63134;52.020;4.714;2023-01-16T02:08:47;10.65;;;4.85;;
22786;SDS011;63134;52.020;4.714;2023-01-16T02:11:41;14.95;;;5.30;;
22786;SDS011;63134;52.020;4.714;2023-01-16T02:14:35;15.75;;;5.30;;
22786;SDS011;63134;52.020;4.714;2023-01-16T02:17:23;15.43;;;4.90;;
22786;SDS011;63134;52.020;4.714;2023-01-16T02:20:27;17.33;;;6.57;;
22786;SDS011;63134;52.020;4.714;2023-01-16T02:36:10;18.95;;;8.15;;
22786;SDS011;63134;52.020;4.714;2023-01-16T02:42:08;14.70;;;8.48;;
22786;SDS011;63134;52.020;4.714;2023-01-16T02:48:14;19.48;;;9.05;;
22786;SDS011;63134;52.020;4.714;2023-01-16T02:51:14;20.75;;;9.48;;
22786;SDS011;63134;52.020;4.714;2023-01-16T02:57:14;19.58;;;8.35;;
22786;SDS011;63134;52.020;4.714;2023-01-16T03:00:05;15.93;;;8.00;;
22786;SDS011;63134;52.020;4.714;2023-01-16T03:02:55;14.93;;;7.40;;
22786;SDS011;63134;52.020;4.714;2023-01-16T03:05:42;18.98;;;7.30;;
22786;SDS011;63134;52.020;4.714;2023-01-16T03:11:46;18.50;;;8.18;;
22786;SDS011;63134;52.020;4.714;2023-01-16T03:14:55;18.70;;;8.23;;
22786;SDS011;63134;52.020;4.714;2023-01-16T03:21:10;13.57;;;5.28;;
22786;SDS011;63134;52.020;4.714;2023-01-16T03:24:03;16.38;;;4.97;;
22786;SDS011;63134;52.020;4.714;2023-01-16T03:27:00;15.77;;;4.60;;
22786;SDS011;63134;52.020;4.714;2023-01-16T03:30:10;16.67;;;4.07;;
22786;SDS011;63134;52.020;4.714;2023-01-16T03:33:08;9.65;;;3.88;;
22786;SDS011;63134;52.020;4.714;2023-01-16T03:36:06;7.55;;;3.00;;
22786;SDS011;63134;52.020;4.714;2023-01-16T03:38:57;6.05;;;3.35;;
22786;SDS011;63134;52.020;4.714;2023-01-16T03:41:45;9.70;;;3.10;;
22786;SDS011;63134;52.020;4.714;2023-01-16T03:44:37;8.30;;;3.05;;
22786;SDS011;63134;52.020;4.714;2023-01-16T03:47:27;9.93;;;3.10;;
22786;SDS011;63134;52.020;4.714;2023-01-16T03:50:20;3.47;;;2.10;;
22786;SDS011;63134;52.020;4.714;2023-01-16T03:53:07;9.30;;;3.08;;
22786;SDS011;63134;52.020;4.714;2023-01-16T03:56:23;12.52;;;2.97;;
22786;SDS011;63134;52.020;4.714;2023-01-16T03:59:17;9.68;;;2.58;;
22786;SDS011;63134;52.020;4.714;2023-01-16T04:02:20;9.18;;;2.50;;
22786;SDS011;63134;52.020;4.714;2023-01-16T04:05:16;10.48;;;2.85;;
22786;SDS011;63134;52.020;4.714;2023-01-16T04:08:09;5.43;;;2.67;;
22786;SDS011;63134;52.020;4.714;2023-01-16T04:10:59;9.73;;;2.45;;
22786;SDS011;63134;52.020;4.714;2023-01-16T04:13:46;8.85;;;2.60;;
22786;SDS011;63134;52.020;4.714;2023-01-16T04:16:35;11.52;;;2.80;;
22786;SDS011;63134;52.020;4.714;2023-01-16T04:19:23;11.45;;;2.70;;
22786;SDS011;63134;52.020;4.714;2023-01-16T04:22:23;5.72;;;2.53;;
22786;SDS011;63134;52.020;4.714;2023-01-16T04:25:13;7.82;;;2.28;;
22786;SDS011;63134;52.020;4.714;2023-01-16T04:28:02;10.48;;;2.72;;
22786;SDS011;63134;52.020;4.714;2023-01-16T04:30:50;13.50;;;3.00;;
22786;SDS011;63134;52.020;4.714;2023-01-16T04:33:35;10.05;;;3.35;;
22786;SDS011;63134;52.020;4.714;2023-01-16T04:36:21;9.45;;;2.97;;
22786;SDS011;63134;52.020;4.714;2023-01-16T04:39:15;9.45;;;2.90;;
22786;SDS011;63134;52.020;4.714;2023-01-16T04:42:01;13.07;;;3.15;;
22786;SDS011;63134;52.020;4.714;2023-01-16T04:44:47;10.73;;;2.95;;
22786;SDS011;63134;52.020;4.714;2023-01-16T04:47:32;8.63;;;3.47;;
22786;SDS011;63134;52.020;4.714;2023-01-16T04:50:18;10.13;;;2.83;;
22786;SDS011;63134;52.020;4.714;2023-01-16T04:53:04;8.02;;;2.97;;
22786;SDS011;63134;52.020;4.714;2023-01-16T04:55:49;10.63;;;3.33;;
22786;SDS011;63134;52.020;4.714;2023-01-16T04:58:35;12.10;;;3.30;;
22786;SDS011;63134;52.020;4.714;2023-01-16T05:01:20;7.15;;;2.95;;
22786;SDS011;63134;52.020;4.714;2023-01-16T05:04:07;13.90;;;3.63;;
22786;SDS011;63134;52.020;4.714;2023-01-16T05:06:54;10.35;;;3.20;;
22786;SDS011;63134;52.020;4.714;2023-01-16T05:09:39;12.35;;;3.22;;
22786;SDS011;63134;52.020;4.714;2023-01-16T05:12:25;11.60;;;2.95;;
22786;SDS011;63134;52.020;4.714;2023-01-16T05:15:13;12.50;;;3.05;;
22786;SDS011;63134;52.020;4.714;2023-01-16T05:17:58;11.70;;;2.70;;
22786;SDS011;63134;52.020;4.714;2023-01-16T05:20:45;13.55;;;3.00;;
22786;SDS011;63134;52.020;4.714;2023-01-16T05:23:31;13.75;;;2.70;;
22786;SDS011;63134;52.020;4.714;2023-01-16T05:26:22;8.05;;;2.47;;
22786;SDS011;63134;52.020;4.714;2023-01-16T05:29:07;9.48;;;2.75;;
22786;SDS011;63134;52.020;4.714;2023-01-16T05:31:53;7.00;;;2.83;;
22786;SDS011;63134;52.020;4.714;2023-01-16T05:34:40;9.02;;;2.63;;
22786;SDS011;63134;52.020;4.714;2023-01-16T05:37:25;9.60;;;2.72;;
22786;SDS011;63134;52.020;4.714;2023-01-16T05:40:11;12.10;;;2.72;;
22786;SDS011;63134;52.020;4.714;2023-01-16T05:42:57;11.10;;;2.92;;
22786;SDS011;63134;52.020;4.714;2023-01-16T05:45:46;11.32;;;2.92;;
22786;SDS011;63134;52.020;4.714;2023-01-16T05:48:32;12.43;;;2.60;;
22786;SDS011;63134;52.020;4.714;2023-01-16T05:51:17;12.43;;;3.40;;
22786;SDS011;63134;52.020;4.714;2023-01-16T05:54:04;12.82;;;3.15;;
22786;SDS011;63134;52.020;4.714;2023-01-16T05:56:50;12.20;;;3.50;;
22786;SDS011;63134;52.020;4.714;2023-01-16T05:59:36;16.95;;;3.33;;
22786;SDS011;63134;52.020;4.714;2023-01-16T06:02:21;18.63;;;2.78;;
22786;SDS011;63134;52.020;4.714;2023-01-16T06:05:07;9.95;;;2.78;;
22786;SDS011;63134;52.020;4.714;2023-01-16T06:07:53;8.43;;;2.70;;
22786;SDS011;63134;52.020;4.714;2023-01-16T06:10:53;13.55;;;3.58;;
22786;SDS011;63134;52.020;4.714;2023-01-16T06:13:38;23.13;;;3.65;;
22786;SDS011;63134;52.020;4.714;2023-01-16T06:16:27;10.68;;;3.08;;
22786;SDS011;63134;52.020;4.714;2023-01-16T06:19:12;15.13;;;3.50;;
22786;SDS011;63134;52.020;4.714;2023-01-16T06:21:58;10.27;;;3.13;;
22786;SDS011;63134;52.020;4.714;2023-01-16T06:24:46;12.35;;;2.70;;
22786;SDS011;63134;52.020;4.714;2023-01-16T06:27:59;9.70;;;2.80;;
22786;SDS011;63134;52.020;4.714;2023-01-16T06:30:44;10.23;;;2.40;;
22786;SDS011;63134;52.020;4.714;2023-01-16T06:33:34;10.27;;;2.92;;
22786;SDS011;63134;52.020;4.714;2023-01-16T06:36:22;13.25;;;3.15;;
22786;SDS011;63134;52.020;4.714;2023-01-16T06:39:10;16.58;;;3.67;;
22786;SDS011;63134;52.020;4.714;2023-01-16T06:42:00;14.25;;;3.38;;
22786;SDS011;63134;52.020;4.714;2023-01-16T06:44:52;10.07;;;3.22;;
22786;SDS011;63134;52.020;4.714;2023-01-16T06:47:38;11.70;;;2.42;;
22786;SDS011;63134;52.020;4.714;2023-01-16T06:50:23;11.80;;;3.20;;
22786;SDS011;63134;52.020;4.714;2023-01-16T06:53:09;11.18;;;2.78;;
22786;SDS011;63134;52.020;4.714;2023-01-16T06:55:55;10.73;;;3.03;;
22786;SDS011;63134;52.020;4.714;2023-01-16T06:58:41;10.35;;;2.75;;
22786;SDS011;63134;52.020;4.714;2023-01-16T07:01:26;13.32;;;3.25;;
22786;SDS011;63134;52.020;4.714;2023-01-16T07:04:15;9.13;;;2.70;;
22786;SDS011;63134;52.020;4.714;2023-01-16T07:07:01;13.32;;;3.30;;
22786;SDS011;63134;52.020;4.714;2023-01-16T07:09:46;9.05;;;2.92;;
22786;SDS011;63134;52.020;4.714;2023-01-16T07:12:32;7.60;;;2.67;;
22786;SDS011;63134;52.020;4.714;2023-01-16T07:15:20;7.35;;;2.45;;
22786;SDS011;63134;52.020;4.714;2023-01-16T07:21:30;9.93;;;3.15;;
22786;SDS011;63134;52.020;4.714;2023-01-16T07:24:35;13.03;;;3.00;;
22786;SDS011;63134;52.020;4.714;2023-01-16T07:27:23;13.88;;;3.65;;
22786;SDS011;63134;52.020;4.714;2023-01-16T07:30:09;9.35;;;2.60;;
22786;SDS011;63134;52.020;4.714;2023-01-16T07:32:56;9.55;;;2.75;;
22786;SDS011;63134;52.020;4.714;2023-01-16T07:35:41;11.05;;;2.92;;
22786;SDS011;63134;52.020;4.714;2023-01-16T07:38:29;9.25;;;2.50;;
22786;SDS011;63134;52.020;4.714;2023-01-16T07:41:14;8.73;;;2.67;;
22786;SDS011;63134;52.020;4.714;2023-01-16T07:44:01;8.75;;;2.58;;
22786;SDS011;63134;52.020;4.714;2023-01-16T07:46:50;14.45;;;3.10;;
22786;SDS011;63134;52.020;4.714;2023-01-16T07:49:35;11.15;;;2.67;;
22786;SDS011;63134;52.020;4.714;2023-01-16T07:52:24;8.02;;;2.40;;
22786;SDS011;63134;52.020;4.714;2023-01-16T07:55:10;7.22;;;2.50;;
22786;SDS011;63134;52.020;4.714;2023-01-16T07:57:59;6.55;;;2.78;;
22786;SDS011;63134;52.020;4.714;2023-01-16T08:00:47;5.47;;;2.85;;
22786;SDS011;63134;52.020;4.714;2023-01-16T08:03:33;6.68;;;2.72;;
22786;SDS011;63134;52.020;4.714;2023-01-16T08:06:22;6.88;;;2.33;;
22786;SDS011;63134;52.020;4.714;2023-01-16T08:09:07;6.68;;;2.00;;
22786;SDS011;63134;52.020;4.714;2023-01-16T08:11:55;8.23;;;2.50;;
22786;SDS011;63134;52.020;4.714;2023-01-16T08:14:41;9.43;;;2.83;;
22786;SDS011;63134;52.020;4.714;2023-01-16T08:17:26;9.43;;;1.98;;
22786;SDS011;63134;52.020;4.714;2023-01-16T08:20:12;6.60;;;2.10;;
22786;SDS011;63134;52.020;4.714;2023-01-16T08:22:58;8.82;;;2.55;;
22786;SDS011;63134;52.020;4.714;2023-01-16T08:25:48;7.22;;;2.20;;
22786;SDS011;63134;52.020;4.714;2023-01-16T08:28:35;8.07;;;2.25;;
22786;SDS011;63134;52.020;4.714;2023-01-16T08:31:26;8.90;;;2.65;;
22786;SDS011;63134;52.020;4.714;2023-01-16T08:34:12;5.85;;;2.00;;
22786;SDS011;63134;52.020;4.714;2023-01-16T08:36:57;7.63;;;2.25;;
22786;SDS011;63134;52.020;4.714;2023-01-16T08:39:43;5.38;;;2.50;;
22786;SDS011;63134;52.020;4.714;2023-01-16T08:42:28;9.13;;;3.13;;
22786;SDS011;63134;52.020;4.714;2023-01-16T08:45:32;5.47;;;2.33;;
22786;SDS011;63134;52.020;4.714;2023-01-16T08:48:35;6.95;;;2.38;;
22786;SDS011;63134;52.020;4.714;2023-01-16T08:51:50;7.50;;;2.80;;
22786;SDS011;63134;52.020;4.714;2023-01-16T08:54:39;6.30;;;2.67;;
22786;SDS011;63134;52.020;4.714;2023-01-16T08:57:25;6.93;;;2.63;;
22786;SDS011;63134;52.020;4.714;2023-01-16T09:00:18;7.63;;;2.42;;
22786;SDS011;63134;52.020;4.714;2023-01-16T09:03:10;8.60;;;2.80;;
22786;SDS011;63134;52.020;4.714;2023-01-16T09:05:56;8.77;;;2.90;;
22786;SDS011;63134;52.020;4.714;2023-01-16T09:08:42;4.35;;;2.45;;
22786;SDS011;63134;52.020;4.714;2023-01-16T09:11:34;12.27;;;2.70;;
22786;SDS011;63134;52.020;4.714;2023-01-16T09:14:45;8.00;;;2.67;;
22786;SDS011;63134;52.020;4.714;2023-01-16T09:17:31;8.15;;;3.17;;
22786;SDS011;63134;52.020;4.714;2023-01-16T09:20:16;6.25;;;2.70;;
22786;SDS011;63134;52.020;4.714;2023-01-16T09:23:02;8.80;;;3.03;;
22786;SDS011;63134;52.020;4.714;2023-01-16T09:25:51;11.02;;;3.30;;
22786;SDS011;63134;52.020;4.714;2023-01-16T09:28:37;11.23;;;2.83;;
22786;SDS011;63134;52.020;4.714;2023-01-16T09:31:22;4.35;;;2.80;;
22786;SDS011;63134;52.020;4.714;2023-01-16T09:34:10;8.23;;;2.65;;
22786;SDS011;63134;52.020;4.714;2023-01-16T09:36:56;7.38;;;2.67;;
22786;SDS011;63134;52.020;4.714;2023-01-16T09:39:44;6.93;;;2.28;;
22786;SDS011;63134;52.020;4.714;2023-01-16T09:45:56;9.15;;;2.90;;
22786;SDS011;63134;52.020;4.714;2023-01-16T09:49:07;6.95;;;2.70;;
22786;SDS011;63134;52.020;4.714;2023-01-16T09:51:56;4.55;;;2.30;;
22786;SDS011;63134;52.020;4.714;2023-01-16T09:55:20;4.78;;;1.92;;
22786;SDS011;63134;52.020;4.714;2023-01-16T09:58:28;4.70;;;2.20;;
22786;SDS011;63134;52.020;4.714;2023-01-16T10:01:23;3.58;;;2.15;;
22786;SDS011;63134;52.020;4.714;2023-01-16T10:04:21;7.90;;;2.42;;
22786;SDS011;63134;52.020;4.714;2023-01-16T10:07:19;4.75;;;2.30;;
22786;SDS011;63134;52.020;4.714;2023-01-16T10:16:15;5.72;;;2.25;;
22786;SDS011;63134;52.020;4.714;2023-01-16T10:19:59;3.63;;;2.10;;
22786;SDS011;63134;52.020;4.714;2023-01-16T10:25:24;6.95;;;2.30;;
22786;SDS011;63134;52.020;4.714;2023-01-16T10:28:29;5.35;;;2.40;;
22786;SDS011;63134;52.020;4.714;2023-01-16T10:31:41;3.45;;;2.30;;
22786;SDS011;63134;52.020;4.714;2023-01-16T10:34:40;6.32;;;2.17;;
22786;SDS011;63134;52.020;4.714;2023-01-16T10:37:50;5.50;;;2.15;;
22786;SDS011;63134;52.020;4.714;2023-01-16T10:40:36;4.85;;;2.40;;
22786;SDS011;63134;52.020;4.714;2023-01-16T10:43:28;6.15;;;2.28;;
22786;SDS011;63134;52.020;4.714;2023-01-16T10:46:37;3.97;;;1.88;;
22786;SDS011;63134;52.020;4.714;2023-01-16T10:49:43;6.88;;;2.30;;
22786;SDS011;63134;52.020;4.714;2023-01-16T10:52:28;5.82;;;2.08;;
22786;SDS011;63134;52.020;4.714;2023-01-16T10:55:14;3.63;;;2.10;;
22786;SDS011;63134;52.020;4.714;2023-01-16T10:58:15;3.67;;;2.17;;
22786;SDS011;63134;52.020;4.714;2023-01-16T11:03:56;6.93;;;2.08;;
22786;SDS011;63134;52.020;4.714;2023-01-16T11:06:44;6.00;;;1.77;;
22786;SDS011;63134;52.020;4.714;2023-01-16T11:09:30;2.33;;;1.95;;
22786;SDS011;63134;52.020;4.714;2023-01-16T11:12:23;3.80;;;1.90;;
22786;SDS011;63134;52.020;4.714;2023-01-16T11:15:31;4.67;;;2.07;;
22786;SDS011;63134;52.020;4.714;2023-01-16T11:18:35;3.28;;;2.00;;
22786;SDS011;63134;52.020;4.714;2023-01-16T11:21:27;5.57;;;1.52;;
22786;SDS011;63134;52.020;4.714;2023-01-16T11:24:16;5.93;;;1.63;;
22786;SDS011;63134;52.020;4.714;2023-01-16T11:27:06;2.83;;;1.80;;
22786;SDS011;63134;52.020;4.714;2023-01-16T11:30:04;4.63;;;1.70;;
22786;SDS011;63134;52.020;4.714;2023-01-16T11:32:54;4.45;;;1.60;;
22786;SDS011;63134;52.020;4.714;2023-01-16T11:35:42;3.28;;;1.60;;
22786;SDS011;63134;52.020;4.714;2023-01-16T11:38:38;1.73;;;1.42;;
22786;SDS011;63134;52.020;4.714;2023-01-16T11:41:29;4.53;;;1.00;;
22786;SDS011;63134;52.020;4.714;2023-01-16T11:44:21;1.88;;;1.45;;
22786;SDS011;63134;52.020;4.714;2023-01-16T11:47:44;1.40;;;1.00;;
22786;SDS011;63134;52.020;4.714;2023-01-16T11:50:37;2.17;;;1.02;;
22786;SDS011;63134;52.020;4.714;2023-01-16T11:53:28;1.10;;;1.00;;
22786;SDS011;63134;52.020;4.714;2023-01-16T11:56:28;1.95;;;1.00;;
22786;SDS011;63134;52.020;4.714;2023-01-16T12:06:11;3.60;;;1.00;;
22786;SDS011;63134;52.020;4.714;2023-01-16T12:10:04;0.80;;;0.80;;
22786;SDS011;63134;52.020;4.714;2023-01-16T12:13:07;1.75;;;1.00;;
22786;SDS011;63134;52.020;4.714;2023-01-16T12:16:29;1.10;;;1.00;;
22786;SDS011;63134;52.020;4.714;2023-01-16T12:22:44;1.15;;;0.90;;
22786;SDS011;63134;52.020;4.714;2023-01-16T12:26:00;3.72;;;1.25;;
22786;SDS011;63134;52.020;4.714;2023-01-16T12:28:58;1.63;;;1.38;;
22786;SDS011;63134;52.020;4.714;2023-01-16T12:35:17;3.30;;;1.50;;
22786;SDS011;63134;52.020;4.714;2023-01-16T12:38:15;2.97;;;1.70;;
22786;SDS011;63134;52.020;4.714;2023-01-16T12:59:53;1.95;;;1.60;;
22786;SDS011;63134;52.020;4.714;2023-01-16T13:02:50;2.58;;;2.20;;
22786;SDS011;63134;52.020;4.714;2023-01-16T13:05:42;3.55;;;2.40;;
22786;SDS011;63134;52.020;4.714;2023-01-16T13:08:31;4.43;;;2.10;;
22786;SDS011;63134;52.020;4.714;2023-01-16T13:11:22;2.58;;;2.08;;
22786;SDS011;63134;52.020;4.714;2023-01-16T13:14:49;2.90;;;1.90;;
22786;SDS011;63134;52.020;4.714;2023-01-16T13:18:01;2.63;;;1.75;;
22786;SDS011;63134;52.020;4.714;2023-01-16T13:20:57;1.90;;;1.65;;
22786;SDS011;63134;52.020;4.714;2023-01-16T13:23:52;1.92;;;1.80;;
22786;SDS011;63134;52.020;4.714;2023-01-16T13:26:51;4.47;;;2.08;;
22786;SDS011;63134;52.020;4.714;2023-01-16T13:29:50;2.90;;;1.73;;
22786;SDS011;63134;52.020;4.714;2023-01-16T13:32:53;2.92;;;1.88;;
22786;SDS011;63134;52.020;4.714;2023-01-16T13:35:50;2.30;;;1.70;;
22786;SDS011;63134;52.020;4.714;2023-01-16T13:38:59;2.90;;;1.80;;
22786;SDS011;63134;52.020;4.714;2023-01-16T13:42:09;2.08;;;1.92;;
22786;SDS011;63134;52.020;4.714;2023-01-16T13:45:00;2.55;;;2.28;;
22786;SDS011;63134;52.020;4.714;2023-01-16T13:48:10;4.05;;;1.85;;
22786;SDS011;63134;52.020;4.714;2023-01-16T13:50:59;2.88;;;2.00;;
22786;SDS011;63134;52.020;4.714;2023-01-16T13:54:01;3.47;;;1.90;;
22786;SDS011;63134;52.020;4.714;2023-01-16T13:56:58;2.25;;;1.83;;
22786;SDS011;63134;52.020;4.714;2023-01-16T13:59:54;4.20;;;1.63;;
22786;SDS011;63134;52.020;4.714;2023-01-16T14:02:43;3.22;;;1.70;;
22786;SDS011;63134;52.020;4.714;2023-01-16T14:11:58;2.95;;;1.98;;
22786;SDS011;63134;52.020;4.714;2023-01-16T14:15:13;3.13;;;1.90;;
22786;SDS011;63134;52.020;4.714;2023-01-16T14:18:35;3.28;;;1.70;;
22786;SDS011;63134;52.020;4.714;2023-01-16T14:22:01;2.10;;;1.80;;
22786;SDS011;63134;52.020;4.714;2023-01-16T14:24:55;4.05;;;3.08;;
22786;SDS011;63134;52.020;4.714;2023-01-16T14:27:42;7.90;;;2.65;;
22786;SDS011;63134;52.020;4.714;2023-01-16T14:30:33;5.78;;;2.70;;
22786;SDS011;63134;52.020;4.714;2023-01-16T14:33:19;2.92;;;2.45;;
22786;SDS011;63134;52.020;4.714;2023-01-16T14:36:09;2.40;;;2.20;;
22786;SDS011;63134;52.020;4.714;2023-01-16T14:39:20;2.28;;;2.08;;
22786;SDS011;63134;52.020;4.714;2023-01-16T14:42:36;2.42;;;2.20;;
22786;SDS011;63134;52.020;4.714;2023-01-16T14:56:26;3.17;;;2.55;;
22786;SDS011;63134;52.020;4.714;2023-01-16T14:59:40;3.35;;;2.60;;
22786;SDS011;63134;52.020;4.714;2023-01-16T15:02:37;5.82;;;3.17;;
22786;SDS011;63134;52.020;4.714;2023-01-16T15:05:34;15.80;;;7.82;;
22786;SDS011;63134;52.020;4.714;2023-01-16T15:08:41;10.68;;;6.32;;
22786;SDS011;63134;52.020;4.714;2023-01-16T15:11:28;8.60;;;4.82;;
22786;SDS011;63134;52.020;4.714;2023-01-16T15:14:20;5.82;;;4.10;;
22786;SDS011;63134;52.020;4.714;2023-01-16T15:17:21;7.00;;;5.47;;
22786;SDS011;63134;52.020;4.714;2023-01-16T15:20:42;6.63;;;5.72;;
22786;SDS011;63134;52.020;4.714;2023-01-16T15:23:48;10.27;;;6.10;;
22786;SDS011;63134;52.020;4.714;2023-01-16T15:26:45;7.40;;;5.88;;
22786;SDS011;63134;52.020;4.714;2023-01-16T15:32:51;8.20;;;5.68;;
22786;SDS011;63134;52.020;4.714;2023-01-16T15:36:01;7.65;;;5.55;;
22786;SDS011;63134;52.020;4.714;2023-01-16T15:39:12;6.25;;;5.55;;
22786;SDS011;63134;52.020;4.714;2023-01-16T15:42:14;7.78;;;5.95;;
22786;SDS011;63134;52.020;4.714;2023-01-16T15:45:26;10.75;;;6.80;;
22786;SDS011;63134;52.020;4.714;2023-01-16T15:48:33;4.63;;;2.85;;
22786;SDS011;63134;52.020;4.714;2023-01-16T15:51:24;2.75;;;2.30;;
22786;SDS011;63134;52.020;4.714;2023-01-16T15:54:14;2.15;;;1.95;;
22786;SDS011;63134;52.020;4.714;2023-01-16T15:57:03;2.78;;;2.08;;
22786;SDS011;63134;52.020;4.714;2023-01-16T16:00:05;2.17;;;1.98;;
22786;SDS011;63134;52.020;4.714;2023-01-16T16:03:23;4.40;;;1.80;;
22786;SDS011;63134;52.020;4.714;2023-01-16T16:06:23;2.08;;;1.35;;
22786;SDS011;63134;52.020;4.714;2023-01-16T16:09:19;3.33;;;1.60;;
22786;SDS011;63134;52.020;4.714;2023-01-16T16:12:09;2.38;;;1.40;;
22786;SDS011;63134;52.020;4.714;2023-01-16T16:15:09;3.63;;;1.58;;
22786;SDS011;63134;52.020;4.714;2023-01-16T16:18:20;2.35;;;1.63;;
22786;SDS011;63134;52.020;4.714;2023-01-16T16:21:06;3.95;;;1.38;;
22786;SDS011;63134;52.020;4.714;2023-01-16T16:23:58;1.30;;;1.20;;
22786;SDS011;63134;52.020;4.714;2023-01-16T16:27:13;2.47;;;1.30;;
22786;SDS011;63134;52.020;4.714;2023-01-16T16:30:03;1.00;;;1.00;;
22786;SDS011;63134;52.020;4.714;2023-01-16T16:32:50;1.27;;;1.08;;
22786;SDS011;63134;52.020;4.714;2023-01-16T16:35:39;3.80;;;1.40;;
22786;SDS011;63134;52.020;4.714;2023-01-16T16:38:26;1.25;;;1.20;;
22786;SDS011;63134;52.020;4.714;2023-01-16T16:44:40;1.40;;;1.30;;
22786;SDS011;63134;52.020;4.714;2023-01-16T16:47:39;1.60;;;1.50;;
22786;SDS011;63134;52.020;4.714;2023-01-16T16:50:34;1.85;;;1.25;;
22786;SDS011;63134;52.020;4.714;2023-01-16T16:53:27;2.30;;;1.73;;
22786;SDS011;63134;52.020;4.714;2023-01-16T16:56:14;2.90;;;1.40;;
22786;SDS011;63134;52.020;4.714;2023-01-16T16:59:11;2.50;;;1.60;;
22786;SDS011;63134;52.020;4.714;2023-01-16T17:02:03;4.53;;;1.75;;
22786;SDS011;63134;52.020;4.714;2023-01-16T17:04:52;4.63;;;1.80;;
22786;SDS011;63134;52.020;4.714;2023-01-16T17:07:41;4.80;;;1.63;;
22786;SDS011;63134;52.020;4.714;2023-01-16T17:10:26;1.90;;;1.58;;
22786;SDS011;63134;52.020;4.714;2023-01-16T17:13:12;2.65;;;1.90;;
22786;SDS011;63134;52.020;4.714;2023-01-16T17:15:58;8.98;;;1.60;;
22786;SDS011;63134;52.020;4.714;2023-01-16T17:18:44;2.92;;;1.30;;
22786;SDS011;63134;52.020;4.714;2023-01-16T17:21:31;3.08;;;1.30;;
22786;SDS011;63134;52.020;4.714;2023-01-16T17:24:25;5.43;;;1.38;;
22786;SDS011;63134;52.020;4.714;2023-01-16T17:27:10;9.65;;;1.20;;
22786;SDS011;63134;52.020;4.714;2023-01-16T17:29:59;1.17;;;1.08;;
22786;SDS011;63134;52.020;4.714;2023-01-16T17:32:50;4.07;;;1.50;;
22786;SDS011;63134;52.020;4.714;2023-01-16T17:35:58;5.93;;;1.35;;
22786;SDS011;63134;52.020;4.714;2023-01-16T17:38:55;3.55;;;1.05;;
22786;SDS011;63134;52.020;4.714;2023-01-16T17:41:40;2.05;;;1.20;;
22786;SDS011;63134;52.020;4.714;2023-01-16T17:44:26;6.22;;;1.88;;
22786;SDS011;63134;52.020;4.714;2023-01-16T17:47:34;6.68;;;1.45;;
22786;SDS011;63134;52.020;4.714;2023-01-16T17:50:21;3.75;;;1.17;;
22786;SDS011;63134;52.020;4.714;2023-01-16T17:53:08;7.32;;;1.20;;
22786;SDS011;63134;52.020;4.714;2023-01-16T17:56:03;2.25;;;1.00;;
22786;SDS011;63134;52.020;4.714;2023-01-16T17:58:52;6.10;;;1.13;;
22786;SDS011;63134;52.020;4.714;2023-01-16T18:01:40;2.30;;;1.00;;
22786;SDS011;63134;52.020;4.714;2023-01-16T18:04:26;3.70;;;1.10;;
22786;SDS011;63134;52.020;4.714;2023-01-16T18:07:22;2.38;;;0.90;;
22786;SDS011;63134;52.020;4.714;2023-01-16T18:10:10;1.35;;;1.10;;
22786;SDS011;63134;52.020;4.714;2023-01-16T18:12:55;4.00;;;1.38;;
22786;SDS011;63134;52.020;4.714;2023-01-16T18:16:03;2.08;;;1.20;;
22786;SDS011;63134;52.020;4.714;2023-01-16T18:21:54;3.72;;;1.27;;
22786;SDS011;63134;52.020;4.714;2023-01-16T18:24:53;6.57;;;1.70;;
22786;SDS011;63134;52.020;4.714;2023-01-16T18:27:39;6.45;;;1.60;;
22786;SDS011;63134;52.020;4.714;2023-01-16T18:30:26;1.90;;;1.23;;
22786;SDS011;63134;52.020;4.714;2023-01-16T18:33:12;9.18;;;2.10;;
22786;SDS011;63134;52.020;4.714;2023-01-16T18:36:04;6.07;;;1.83;;
22786;SDS011;63134;52.020;4.714;2023-01-16T18:38:50;6.30;;;1.60;;
22786;SDS011;63134;52.020;4.714;2023-01-16T18:41:57;4.40;;;1.70;;
22786;SDS011;63134;52.020;4.714;2023-01-16T18:45:01;11.85;;;2.05;;
22786;SDS011;63134;52.020;4.714;2023-01-16T18:48:08;8.20;;;1.77;;
22786;SDS011;63134;52.020;4.714;2023-01-16T18:51:15;7.63;;;1.77;;
22786;SDS011;63134;52.020;4.714;2023-01-16T18:54:20;5.38;;;1.92;;
22786;SDS011;63134;52.020;4.714;2023-01-16T18:57:25;6.78;;;1.80;;
22786;SDS011;63134;52.020;4.714;2023-01-16T19:00:38;8.98;;;1.75;;
22786;SDS011;63134;52.020;4.714;2023-01-16T19:03:45;6.25;;;2.00;;
22786;SDS011;63134;52.020;4.714;2023-01-16T19:06:31;8.00;;;2.75;;